CVH2 weather

Vermilion Health Centre Heliport
Vermilion, Alberta, Canada

Public forecast

Using degrees Celsius for public forecast. Weather courtesy of forecast.io.

Closest aviation weather report (METAR) to Vermilion Health Centre Heliport

Closest report is Lloydminster Airport, 28.8 nm (53.3 km) E. Retrieved 2019/12/09 12:00 UTC (42 minutes ago):

CYLL 091200Z AUTO 36017G23KT 7SM -SN OVC024 M12/M15 A2994 RMK SLP194

Closest aviation forecast (TAF) to Vermilion Health Centre Heliport

Closest forecast is Lloydminster Airport, 28.8 nm (53.3 km) E. Retrieved 2019/12/09 12:45 UTC (0 seconds ago):

TAF TAF CYLL 091142Z 0912/0924 32012G22KT P6SM OVC025 TEMPO 0912/0917 4SM -SN OVC012 FM091700 32008KT P6SM SCT020 TEMPO 0917/0921 BKN020 BECMG 0922/0924 26006KT RMK FCST BASED ON AUTO OBS NXT FCST BY 091800Z